createdAt,value
2017-07-20T00:00:15.568Z,17.10
2017-07-20T00:02:41.889Z,17.10
2017-07-20T00:05:08.199Z,17.10
2017-07-20T00:07:34.511Z,17.10
2017-07-20T00:10:00.807Z,17.10
2017-07-20T00:12:27.136Z,17.10
2017-07-20T00:14:53.440Z,17.20
2017-07-20T00:17:19.754Z,17.20
2017-07-20T00:19:46.064Z,17.20
2017-07-20T00:22:12.389Z,17.20
2017-07-20T00:24:38.743Z,17.30
2017-07-20T00:27:05.071Z,17.40
2017-07-20T00:29:31.412Z,17.40
2017-07-20T00:31:57.714Z,17.50
2017-07-20T00:34:24.108Z,17.60
2017-07-20T00:36:51.165Z,17.80
2017-07-20T00:39:17.478Z,17.70
2017-07-20T00:41:43.808Z,17.70
2017-07-20T00:44:10.113Z,17.70
2017-07-20T00:46:36.427Z,17.70
2017-07-20T00:49:02.772Z,17.80
2017-07-20T00:51:29.064Z,17.70
2017-07-20T00:53:55.358Z,17.70
2017-07-20T00:56:21.700Z,17.70
2017-07-20T00:58:47.997Z,17.70
2017-07-20T01:01:14.331Z,17.60
2017-07-20T01:03:40.644Z,17.50
2017-07-20T01:06:06.955Z,17.40
2017-07-20T01:08:33.297Z,17.40
2017-07-20T01:10:59.623Z,17.40
2017-07-20T01:13:26.009Z,17.40
2017-07-20T01:15:53.104Z,17.30
2017-07-20T01:18:19.396Z,17.30
2017-07-20T01:20:45.713Z,17.30
2017-07-20T01:23:12.075Z,17.40
2017-07-20T01:25:38.427Z,17.40
2017-07-20T01:28:04.719Z,17.50
2017-07-20T01:30:31.787Z,17.50
2017-07-20T01:32:58.163Z,17.50
2017-07-20T01:35:24.503Z,17.60
2017-07-20T01:37:50.916Z,17.70
2017-07-20T01:40:17.282Z,17.60
2017-07-20T01:42:43.697Z,17.70
2017-07-20T01:45:10.039Z,17.80
2017-07-20T01:47:36.386Z,17.90
2017-07-20T01:50:02.735Z,17.90
2017-07-20T01:52:29.108Z,17.80
2017-07-20T01:54:55.448Z,17.70
2017-07-20T01:57:21.947Z,17.70
2017-07-20T01:59:48.281Z,17.80
2017-07-20T02:02:14.651Z,17.70
2017-07-20T02:04:40.988Z,17.70
2017-07-20T02:07:07.366Z,17.80
2017-07-20T02:09:33.695Z,17.80
2017-07-20T02:12:00.075Z,17.80
2017-07-20T02:14:26.420Z,17.80
2017-07-20T02:16:52.755Z,17.90
2017-07-20T02:19:19.812Z,18.00
2017-07-20T02:21:46.129Z,18.00
2017-07-20T02:24:13.191Z,18.10
2017-07-20T02:26:39.524Z,18.10
2017-07-20T02:29:05.823Z,18.20
2017-07-20T02:31:32.896Z,18.30
2017-07-20T02:33:59.241Z,18.30
2017-07-20T02:36:25.532Z,18.40
2017-07-20T02:38:52.200Z,18.40
2017-07-20T02:41:18.528Z,18.50
2017-07-20T02:43:44.939Z,18.60
2017-07-20T02:46:11.275Z,18.60
2017-07-20T02:48:38.352Z,18.70
2017-07-20T02:51:04.693Z,18.70
2017-07-20T02:53:31.077Z,18.70
2017-07-20T02:55:57.428Z,18.80
2017-07-20T02:58:23.728Z,18.90
2017-07-20T03:00:50.027Z,18.90
2017-07-20T03:03:16.361Z,18.90
2017-07-20T03:05:42.683Z,18.90
2017-07-20T03:08:09.024Z,19.00
2017-07-20T03:10:35.319Z,18.90
2017-07-20T03:13:01.643Z,18.90
2017-07-20T03:15:27.962Z,18.90
2017-07-20T03:17:54.256Z,18.90
2017-07-20T03:20:20.579Z,19.00
2017-07-20T03:22:46.881Z,19.00
2017-07-20T03:25:13.215Z,18.90
2017-07-20T03:27:39.534Z,19.00
2017-07-20T03:30:05.850Z,19.00
2017-07-20T03:32:32.175Z,19.00
2017-07-20T03:34:58.519Z,19.00
2017-07-20T03:37:24.823Z,19.00
2017-07-20T03:39:51.140Z,19.00
2017-07-20T03:42:17.477Z,19.00
2017-07-20T03:44:44.552Z,19.00
2017-07-20T03:47:10.871Z,19.00
2017-07-20T03:49:37.187Z,19.00
2017-07-20T03:52:04.235Z,19.00
2017-07-20T03:54:30.571Z,18.90
2017-07-20T03:56:56.863Z,18.90
2017-07-20T03:59:23.207Z,19.00
2017-07-20T04:01:50.261Z,18.80
2017-07-20T04:04:17.296Z,18.80
2017-07-20T04:06:43.640Z,18.80
2017-07-20T04:09:09.955Z,18.80
2017-07-20T04:11:36.294Z,18.80
2017-07-20T04:14:02.635Z,18.80
2017-07-20T04:16:28.944Z,18.70
2017-07-20T04:18:55.252Z,18.70
2017-07-20T04:21:21.630Z,18.70
2017-07-20T04:23:47.939Z,18.70
2017-07-20T04:26:14.243Z,18.60
2017-07-20T04:28:40.564Z,18.70
2017-07-20T04:31:06.887Z,18.70
2017-07-20T04:33:33.227Z,18.70
2017-07-20T04:35:59.554Z,18.70
2017-07-20T04:38:25.860Z,18.60
2017-07-20T04:40:52.180Z,18.60
2017-07-20T04:43:18.523Z,18.60
2017-07-20T04:45:44.868Z,18.60
2017-07-20T04:48:11.188Z,18.50
2017-07-20T04:50:37.480Z,18.50
2017-07-20T04:53:04.551Z,18.50
2017-07-20T04:55:30.855Z,18.40
2017-07-20T04:57:57.191Z,18.40
2017-07-20T05:00:24.316Z,18.40
2017-07-20T05:02:50.624Z,18.40
2017-07-20T05:05:16.943Z,18.40
2017-07-20T05:07:43.315Z,18.40
2017-07-20T05:10:09.608Z,18.40
2017-07-20T05:12:35.964Z,18.40
2017-07-20T05:15:02.312Z,18.50
2017-07-20T05:17:29.351Z,18.60
2017-07-20T05:19:55.689Z,18.60
2017-07-20T05:22:22.798Z,18.60
2017-07-20T05:24:49.100Z,18.60
2017-07-20T05:27:15.423Z,18.70
2017-07-20T05:29:41.775Z,18.70
2017-07-20T05:32:08.076Z,18.70
2017-07-20T05:34:34.387Z,18.70
2017-07-20T05:37:01.508Z,19.00
2017-07-20T05:39:27.860Z,19.00
2017-07-20T05:41:54.182Z,18.90
2017-07-20T05:44:20.532Z,19.00
2017-07-20T05:46:46.872Z,19.10
2017-07-20T05:49:13.197Z,19.10
2017-07-20T05:51:39.547Z,19.20
2017-07-20T05:54:05.863Z,19.40
2017-07-20T05:56:32.907Z,19.70
2017-07-20T05:58:59.588Z,19.60
2017-07-20T06:01:25.903Z,19.90
2017-07-20T06:03:52.267Z,20.10
2017-07-20T06:06:19.399Z,20.60
2017-07-20T06:08:45.707Z,20.60
2017-07-20T06:11:12.060Z,21.00
2017-07-20T06:13:38.388Z,21.00
2017-07-20T06:16:04.742Z,21.10
2017-07-20T06:18:31.855Z,21.70
2017-07-20T06:20:58.168Z,21.70
2017-07-20T06:23:24.525Z,21.50
2017-07-20T06:25:50.836Z,21.30
2017-07-20T06:28:17.217Z,21.00
2017-07-20T06:30:43.567Z,20.80
2017-07-20T06:33:09.911Z,20.70
2017-07-20T06:35:36.251Z,20.60
2017-07-20T06:38:02.553Z,20.40
2017-07-20T06:40:29.627Z,20.50
2017-07-20T06:42:55.984Z,20.50
2017-07-20T06:45:22.315Z,20.60
2017-07-20T06:47:48.622Z,20.50
2017-07-20T06:50:14.974Z,20.40
2017-07-20T06:52:41.275Z,20.60
2017-07-20T06:55:07.628Z,20.70
2017-07-20T06:57:33.977Z,20.90
2017-07-20T07:00:00.275Z,21.20
2017-07-20T07:02:26.617Z,21.50
2017-07-20T07:04:52.922Z,21.50
2017-07-20T07:07:19.219Z,21.50
2017-07-20T07:09:45.588Z,21.60
2017-07-20T07:12:11.916Z,21.90
2017-07-20T07:14:38.255Z,22.00
2017-07-20T07:17:04.590Z,22.20
2017-07-20T07:19:30.886Z,22.10
2017-07-20T07:21:57.231Z,22.10
2017-07-20T07:24:23.569Z,21.90
2017-07-20T07:26:49.919Z,21.90
2017-07-20T07:29:16.213Z,22.00
2017-07-20T07:31:42.510Z,22.20
2017-07-20T07:34:08.849Z,22.40
2017-07-20T07:36:35.161Z,22.50
2017-07-20T07:39:01.461Z,22.60
2017-07-20T07:41:27.817Z,22.60
2017-07-20T07:43:54.177Z,22.40
2017-07-20T07:46:20.508Z,22.20
2017-07-20T07:48:47.579Z,22.10
2017-07-20T07:51:13.886Z,22.10
2017-07-20T07:53:40.994Z,21.90
2017-07-20T07:56:07.296Z,21.80
2017-07-20T07:58:33.620Z,21.80
2017-07-20T08:00:59.968Z,21.60
2017-07-20T08:03:26.316Z,21.50
2017-07-20T08:05:52.648Z,21.40
2017-07-20T08:08:18.955Z,21.40
2017-07-20T08:10:45.325Z,21.40
2017-07-20T08:13:12.408Z,21.20
2017-07-20T08:15:38.691Z,21.20
2017-07-20T08:18:05.017Z,21.10
2017-07-20T08:20:31.320Z,21.00
2017-07-20T08:22:57.661Z,20.80
2017-07-20T08:25:24.001Z,20.70
2017-07-20T08:27:50.294Z,20.60
2017-07-20T08:30:16.603Z,20.40
2017-07-20T08:32:43.664Z,20.40
2017-07-20T08:35:09.973Z,20.30
2017-07-20T08:37:37.036Z,20.20
2017-07-20T08:40:04.117Z,20.10
2017-07-20T08:42:30.439Z,20.00
2017-07-20T08:44:56.753Z,19.80
2017-07-20T08:47:23.080Z,19.70
2017-07-20T08:49:49.383Z,19.60
2017-07-20T08:52:15.707Z,19.70
2017-07-20T08:54:42.036Z,19.60
2017-07-20T08:57:08.351Z,19.60
2017-07-20T08:59:34.717Z,19.50
2017-07-20T09:02:01.788Z,19.30
2017-07-20T09:04:28.133Z,19.30
2017-07-20T09:06:54.498Z,19.30
2017-07-20T09:09:21.584Z,19.20
2017-07-20T09:11:47.891Z,19.20
2017-07-20T09:14:14.200Z,19.10
2017-07-20T09:16:40.503Z,18.90
2017-07-20T09:19:06.841Z,18.90
2017-07-20T09:21:33.179Z,18.80
2017-07-20T09:23:59.483Z,18.70
2017-07-20T09:26:25.840Z,18.60
2017-07-20T09:28:52.932Z,18.50
2017-07-20T09:31:19.267Z,18.50
2017-07-20T09:33:46.306Z,18.50
2017-07-20T09:36:13.384Z,18.60
2017-07-20T09:38:39.724Z,18.60
2017-07-20T09:41:06.023Z,18.50
2017-07-20T09:43:32.395Z,18.20
2017-07-20T09:45:58.731Z,18.10
2017-07-20T09:48:25.059Z,17.70
2017-07-20T09:50:51.380Z,17.70
2017-07-20T09:53:17.689Z,17.90
2017-07-20T09:55:44.020Z,18.00
2017-07-20T09:58:10.403Z,17.80
2017-07-20T10:00:36.724Z,17.70
2017-07-20T10:03:03.063Z,17.40
2017-07-20T10:05:29.401Z,17.30
2017-07-20T10:07:55.791Z,17.30
2017-07-20T10:10:22.109Z,17.40
2017-07-20T10:12:48.727Z,17.10
2017-07-20T10:15:15.034Z,17.20
2017-07-20T10:17:41.355Z,16.90
2017-07-20T10:20:07.722Z,16.80
2017-07-20T10:22:34.025Z,16.90
2017-07-20T10:25:01.071Z,17.00
2017-07-20T10:27:28.203Z,17.10
2017-07-20T10:29:54.512Z,17.10
2017-07-20T10:32:20.854Z,17.10
2017-07-20T10:34:47.183Z,17.50
2017-07-20T10:37:13.488Z,17.50
2017-07-20T10:39:39.806Z,17.60
2017-07-20T10:42:06.157Z,17.70
2017-07-20T10:44:32.546Z,18.10
2017-07-20T10:46:58.864Z,18.30
2017-07-20T10:49:25.219Z,18.10
2017-07-20T10:51:51.515Z,18.30
2017-07-20T10:54:17.824Z,18.50
2017-07-20T10:56:44.916Z,18.70
2017-07-20T10:59:11.219Z,18.70
2017-07-20T11:01:37.544Z,18.90
2017-07-20T11:04:03.855Z,19.40
2017-07-20T11:06:30.187Z,20.70
2017-07-20T11:08:56.520Z,21.30
2017-07-20T11:11:22.845Z,21.80
2017-07-20T11:13:49.152Z,22.00
2017-07-20T11:16:15.482Z,22.20
2017-07-20T11:18:41.854Z,22.60
2017-07-20T11:21:08.168Z,22.40
2017-07-20T11:23:34.467Z,22.50
2017-07-20T11:26:00.820Z,22.90
2017-07-20T11:28:27.140Z,23.30
2017-07-20T11:30:53.439Z,23.60
2017-07-20T11:33:19.774Z,23.80
2017-07-20T11:35:46.112Z,23.80
2017-07-20T11:38:12.483Z,23.80
2017-07-20T11:40:38.793Z,23.80
2017-07-20T11:43:05.135Z,23.60
2017-07-20T11:45:31.467Z,23.50
2017-07-20T11:47:57.800Z,23.20
2017-07-20T11:50:24.118Z,23.20
2017-07-20T11:52:50.503Z,23.00
2017-07-20T11:55:17.558Z,22.90
2017-07-20T11:57:44.607Z,22.90
2017-07-20T12:00:10.965Z,22.90
2017-07-20T12:02:37.294Z,22.90
2017-07-20T12:05:03.688Z,22.60
2017-07-20T12:07:30.772Z,22.00
2017-07-20T12:09:57.116Z,21.90
2017-07-20T12:12:23.436Z,22.30
2017-07-20T12:14:49.770Z,22.40
2017-07-20T12:17:16.070Z,22.50
2017-07-20T12:19:42.434Z,22.60
2017-07-20T12:22:08.779Z,22.70
2017-07-20T12:24:35.103Z,22.60
2017-07-20T12:27:01.420Z,22.90
2017-07-20T12:29:27.768Z,22.60
2017-07-20T12:31:54.059Z,22.40
2017-07-20T12:34:20.371Z,22.10
2017-07-20T12:36:46.716Z,22.10
2017-07-20T12:39:13.039Z,22.30
2017-07-20T12:41:39.371Z,21.60
2017-07-20T12:44:05.708Z,21.40
2017-07-20T12:46:32.052Z,21.50
2017-07-20T12:48:58.351Z,22.10
2017-07-20T12:51:25.519Z,22.30
2017-07-20T12:53:51.876Z,22.30
2017-07-20T12:56:18.189Z,22.50
2017-07-20T12:58:44.491Z,22.60
2017-07-20T13:01:10.851Z,22.70
2017-07-20T13:03:37.166Z,22.80
2017-07-20T13:06:03.472Z,22.80
2017-07-20T13:08:29.824Z,23.10
2017-07-20T13:10:56.139Z,22.90
2017-07-20T13:13:22.484Z,22.60
2017-07-20T13:15:48.792Z,22.60
2017-07-20T13:18:15.772Z,22.40
2017-07-20T13:20:42.079Z,22.70
2017-07-20T13:23:09.138Z,22.50
2017-07-20T13:25:35.489Z,22.40
2017-07-20T13:28:01.875Z,22.50
2017-07-20T13:30:28.923Z,23.20
2017-07-20T13:32:55.997Z,23.20
2017-07-20T13:35:22.325Z,23.20
2017-07-20T13:37:48.647Z,23.40
2017-07-20T13:40:14.983Z,23.40
2017-07-20T13:42:41.287Z,23.50
2017-07-20T13:45:08.400Z,23.70
2017-07-20T13:47:34.735Z,23.70
2017-07-20T13:50:01.044Z,23.40
2017-07-20T13:52:27.376Z,23.70
2017-07-20T13:54:53.688Z,23.60
2017-07-20T13:57:19.988Z,23.40
2017-07-20T13:59:46.320Z,23.00
2017-07-20T14:02:12.652Z,23.10
2017-07-20T14:04:38.995Z,22.80
2017-07-20T14:07:05.336Z,22.70
2017-07-20T14:09:31.696Z,22.80
2017-07-20T14:11:57.988Z,22.90
2017-07-20T14:14:24.338Z,22.40
2017-07-20T14:16:50.667Z,22.50
2017-07-20T14:19:16.975Z,22.40
2017-07-20T14:21:43.297Z,22.40
2017-07-20T14:24:09.616Z,22.20
2017-07-20T14:26:36.667Z,22.10
2017-07-20T14:29:03.040Z,22.10
2017-07-20T14:31:29.349Z,22.20
2017-07-20T14:33:55.658Z,22.60
2017-07-20T14:36:22.768Z,22.90
2017-07-20T14:38:49.075Z,22.80
2017-07-20T14:41:15.511Z,23.00
2017-07-20T14:43:41.857Z,23.10
2017-07-20T14:46:08.156Z,22.90
2017-07-20T14:48:34.501Z,22.60
2017-07-20T14:51:00.843Z,22.70
2017-07-20T14:53:27.171Z,22.80
2017-07-20T14:55:53.524Z,23.00
2017-07-20T14:58:19.837Z,23.20
2017-07-20T15:00:46.127Z,23.20
2017-07-20T15:03:12.468Z,23.10
2017-07-20T15:05:38.825Z,22.90
2017-07-20T15:08:05.147Z,22.80
2017-07-20T15:10:32.300Z,22.60
2017-07-20T15:12:58.663Z,22.60
2017-07-20T15:15:25.773Z,23.20
2017-07-20T15:17:52.165Z,23.20
2017-07-20T15:20:18.488Z,23.40
2017-07-20T15:22:45.531Z,23.30
2017-07-20T15:25:12.599Z,23.40
2017-07-20T15:27:38.931Z,23.40
2017-07-20T15:30:05.235Z,23.40
2017-07-20T15:32:32.324Z,23.00
2017-07-20T15:34:58.661Z,22.90
2017-07-20T15:37:25.045Z,23.20
2017-07-20T15:39:52.117Z,23.60
2017-07-20T15:42:18.465Z,23.60
2017-07-20T15:44:44.867Z,23.80
2017-07-20T15:47:11.967Z,23.80
2017-07-20T15:49:38.317Z,23.80
2017-07-20T15:52:04.744Z,23.80
2017-07-20T15:54:31.060Z,23.70
2017-07-20T15:56:57.398Z,23.60
2017-07-20T15:59:24.536Z,23.60
2017-07-20T16:01:50.905Z,23.50
2017-07-20T16:04:17.980Z,23.40
2017-07-20T16:06:44.359Z,23.40
2017-07-20T16:09:10.708Z,23.20
2017-07-20T16:11:37.016Z,23.10
2017-07-20T16:14:03.326Z,23.30
2017-07-20T16:16:29.656Z,23.30
2017-07-20T16:18:56.008Z,23.10
2017-07-20T16:21:22.312Z,22.90
2017-07-20T16:23:48.623Z,22.80
2017-07-20T16:26:14.997Z,22.80
2017-07-20T16:28:41.363Z,22.40
2017-07-20T16:31:07.699Z,22.20
2017-07-20T16:33:34.083Z,22.30
2017-07-20T16:36:00.443Z,22.20
2017-07-20T16:38:27.493Z,22.20
2017-07-20T16:40:54.542Z,22.20
2017-07-20T16:43:21.658Z,22.30
2017-07-20T16:45:48.011Z,22.30
2017-07-20T16:48:15.083Z,22.40
2017-07-20T16:50:41.421Z,22.40
2017-07-20T16:53:07.915Z,22.30
2017-07-20T16:55:35.020Z,22.20
2017-07-20T16:58:01.328Z,22.10
2017-07-20T17:00:27.660Z,22.10
2017-07-20T17:02:54.021Z,22.20
2017-07-20T17:05:20.349Z,22.20
2017-07-20T17:07:46.702Z,22.10
2017-07-20T17:10:13.040Z,22.00
2017-07-20T17:12:39.385Z,22.00
2017-07-20T17:15:06.470Z,22.20
2017-07-20T17:17:32.862Z,22.10
2017-07-20T17:19:59.932Z,22.20
2017-07-20T17:22:26.582Z,22.10
2017-07-20T17:24:52.937Z,21.90
2017-07-20T17:27:19.255Z,21.90
2017-07-20T17:29:46.112Z,21.90
2017-07-20T17:32:12.459Z,21.70
2017-07-20T17:34:38.853Z,21.80
2017-07-20T17:37:05.219Z,21.80
2017-07-20T17:39:31.528Z,21.90
2017-07-20T17:41:57.836Z,22.10
2017-07-20T17:44:24.189Z,22.30
2017-07-20T17:46:50.540Z,22.20
2017-07-20T17:49:16.896Z,22.10
2017-07-20T17:51:43.217Z,22.00
2017-07-20T17:54:09.596Z,22.00
2017-07-20T17:56:35.930Z,22.00
2017-07-20T17:59:02.308Z,22.00
2017-07-20T18:01:29.075Z,21.90
2017-07-20T18:03:55.401Z,21.70
2017-07-20T18:06:21.748Z,21.70
2017-07-20T18:08:48.105Z,21.60
2017-07-20T18:11:15.229Z,21.60
2017-07-20T18:13:41.545Z,21.60
2017-07-20T18:16:07.900Z,21.50
2017-07-20T18:18:34.255Z,21.20
2017-07-20T18:21:00.588Z,21.10
2017-07-20T18:23:26.886Z,21.10
2017-07-20T18:25:53.223Z,21.00
2017-07-20T18:28:19.575Z,20.90
2017-07-20T18:30:45.928Z,20.90
2017-07-20T18:46:12.993Z,20.90
2017-07-20T18:48:39.334Z,21.00
2017-07-20T18:51:05.667Z,20.70
2017-07-20T18:53:32.004Z,20.60
2017-07-20T18:55:58.365Z,20.60
2017-07-20T18:58:24.728Z,20.60
2017-07-20T19:00:51.079Z,20.60
2017-07-20T19:03:17.476Z,20.70
2017-07-20T19:05:44.623Z,20.50
2017-07-20T19:08:11.702Z,20.40
2017-07-20T19:10:38.120Z,20.30
2017-07-20T19:13:04.461Z,19.30
2017-07-20T19:15:30.820Z,18.90
2017-07-20T19:17:57.299Z,18.50
2017-07-20T19:20:23.775Z,18.50
2017-07-20T19:22:50.126Z,18.40
2017-07-20T19:25:16.464Z,18.40
2017-07-20T19:27:42.882Z,18.50
2017-07-20T19:30:09.190Z,18.40
2017-07-20T19:32:35.562Z,18.60
2017-07-20T19:35:02.040Z,18.60
2017-07-20T19:37:28.511Z,18.50
2017-07-20T19:39:55.622Z,17.90
2017-07-20T19:42:22.025Z,17.90
2017-07-20T19:44:48.384Z,17.80
2017-07-20T19:47:14.688Z,17.90
2017-07-20T19:49:41.743Z,17.80
2017-07-20T19:52:08.077Z,17.80
2017-07-20T19:54:34.447Z,17.70
2017-07-20T19:57:00.804Z,17.70
2017-07-20T19:59:27.174Z,17.60
2017-07-20T20:01:53.539Z,17.60
2017-07-20T20:04:19.936Z,17.60
2017-07-20T20:06:46.993Z,17.50
2017-07-20T20:09:13.320Z,17.50
2017-07-20T20:11:39.695Z,17.50
2017-07-20T20:14:06.004Z,17.40
2017-07-20T20:16:32.368Z,17.30
2017-07-20T20:18:58.775Z,17.10
2017-07-20T20:21:25.103Z,17.20
2017-07-20T20:23:51.448Z,17.10
2017-07-20T20:26:17.771Z,16.90
2017-07-20T20:28:44.170Z,16.80
2017-07-20T20:31:10.521Z,16.80
2017-07-20T20:33:36.830Z,16.80
2017-07-20T20:36:03.168Z,16.70
2017-07-20T20:38:29.515Z,16.70
2017-07-20T20:40:55.820Z,16.70
2017-07-20T20:43:22.129Z,16.70
2017-07-20T20:45:49.284Z,16.70
2017-07-20T20:48:15.591Z,16.70
2017-07-20T20:50:41.940Z,16.60
2017-07-20T20:53:08.247Z,16.50
2017-07-20T20:55:34.576Z,16.50
2017-07-20T20:58:00.939Z,16.60
2017-07-20T21:00:27.284Z,16.60
2017-07-20T21:02:53.660Z,16.60
2017-07-20T21:05:19.968Z,16.40
2017-07-20T21:07:46.304Z,16.40
2017-07-20T21:10:12.659Z,16.40
2017-07-20T21:12:38.960Z,16.30
2017-07-20T21:15:05.352Z,16.20
2017-07-20T21:17:31.704Z,16.00
2017-07-20T21:19:58.007Z,16.10
2017-07-20T21:22:24.353Z,16.10
2017-07-20T21:24:50.679Z,16.10
2017-07-20T21:27:17.044Z,16.10
2017-07-20T21:29:43.393Z,16.30
2017-07-20T21:32:09.772Z,16.30
2017-07-20T21:34:36.183Z,16.10
2017-07-20T21:37:03.333Z,16.10
2017-07-20T21:39:30.380Z,16.10
2017-07-20T21:41:56.719Z,16.00
2017-07-20T21:44:23.071Z,16.00
2017-07-20T21:46:49.367Z,15.90
2017-07-20T21:49:15.722Z,15.90
2017-07-20T21:51:42.020Z,15.90
2017-07-20T21:54:08.398Z,15.90
2017-07-20T21:56:34.740Z,15.80
2017-07-20T21:59:01.054Z,15.80
2017-07-20T22:01:27.418Z,15.70
2017-07-20T22:03:53.733Z,15.70
2017-07-20T22:06:20.863Z,15.60
2017-07-20T22:08:47.164Z,15.60
2017-07-20T22:11:13.467Z,15.50
2017-07-20T22:13:40.628Z,15.60
2017-07-20T22:16:07.022Z,15.60
2017-07-20T22:18:33.340Z,15.60
2017-07-20T22:20:59.639Z,15.60
2017-07-20T22:23:25.984Z,15.60
2017-07-20T22:25:52.333Z,15.40
2017-07-20T22:28:18.643Z,15.40
2017-07-20T22:30:44.948Z,15.40
2017-07-20T22:33:11.276Z,15.30
2017-07-20T22:35:38.372Z,15.20
2017-07-20T22:38:04.741Z,15.20
2017-07-20T22:40:31.811Z,15.20
2017-07-20T22:42:58.124Z,15.20
2017-07-20T22:45:25.220Z,15.10
2017-07-20T22:47:51.526Z,15.10
2017-07-20T22:50:17.910Z,15.10
2017-07-20T22:52:44.220Z,15.00
2017-07-20T22:55:10.576Z,15.00
2017-07-20T22:57:36.898Z,15.00
2017-07-20T23:00:03.284Z,15.00
2017-07-20T23:02:29.667Z,15.00
2017-07-20T23:04:55.999Z,15.00
2017-07-20T23:07:22.410Z,14.90
2017-07-20T23:09:48.779Z,14.90
2017-07-20T23:12:15.120Z,14.90
2017-07-20T23:14:41.428Z,14.90
2017-07-20T23:17:08.507Z,15.00
2017-07-20T23:19:34.837Z,14.90
2017-07-20T23:22:01.275Z,15.00
2017-07-20T23:24:27.619Z,15.10
2017-07-20T23:26:53.934Z,15.10
2017-07-20T23:29:20.261Z,15.00
2017-07-20T23:31:46.588Z,15.00
2017-07-20T23:34:12.892Z,15.00
2017-07-20T23:36:39.299Z,15.10
2017-07-20T23:39:06.028Z,15.00
2017-07-20T23:41:32.325Z,15.10
2017-07-20T23:43:58.628Z,15.00
2017-07-20T23:46:25.721Z,14.90
2017-07-20T23:48:52.032Z,14.90
2017-07-20T23:51:18.496Z,14.90
2017-07-20T23:53:44.964Z,14.90
2017-07-20T23:56:11.287Z,14.90
2017-07-20T23:58:38.452Z,14.90
